createdAt,value
2019-04-16T00:02:38.084Z,22.27
2019-04-16T00:05:15.295Z,24.40
2019-04-16T00:08:10.057Z,26.93
2019-04-16T00:10:51.965Z,25.90
2019-04-16T00:13:43.607Z,23.50
2019-04-16T00:16:13.961Z,30.70
2019-04-16T00:18:56.682Z,22.63
2019-04-16T00:21:38.445Z,30.63
2019-04-16T00:24:23.135Z,23.83
2019-04-16T00:26:57.811Z,25.80
2019-04-16T00:29:32.554Z,24.60
2019-04-16T00:32:37.992Z,29.67
2019-04-16T00:35:08.275Z,24.53
2019-04-16T00:37:39.760Z,29.53
2019-04-16T00:40:12.512Z,23.37
2019-04-16T00:42:43.547Z,25.93
2019-04-16T00:45:16.961Z,22.67
2019-04-16T00:47:51.474Z,26.43
2019-04-16T00:50:21.393Z,30.10
2019-04-16T00:52:52.128Z,26.53
2019-04-16T00:55:22.859Z,27.37
2019-04-16T00:57:53.263Z,22.10
2019-04-16T01:00:24.791Z,25.63
2019-04-16T01:02:56.666Z,24.23
2019-04-16T01:05:27.106Z,25.07
2019-04-16T01:07:59.541Z,27.90
2019-04-16T01:10:31.103Z,26.60
2019-04-16T01:13:03.018Z,24.07
2019-04-16T01:15:34.902Z,22.67
2019-04-16T01:18:08.006Z,27.83
2019-04-16T01:20:40.363Z,24.80
2019-04-16T01:23:11.475Z,26.77
2019-04-16T01:25:42.181Z,26.40
2019-04-16T01:28:15.214Z,30.50
2019-04-16T01:31:11.840Z,22.13
2019-04-16T01:33:53.190Z,27.63
2019-04-16T01:36:36.625Z,23.73
2019-04-16T01:39:17.627Z,23.27
2019-04-16T01:41:43.646Z,25.83
2019-04-16T01:44:14.398Z,28.93
2019-04-16T01:46:45.140Z,26.90
2019-04-16T01:49:17.315Z,24.20
2019-04-16T01:51:48.682Z,27.87
2019-04-16T01:54:22.549Z,28.07
2019-04-16T01:56:52.479Z,25.67
2019-04-16T01:59:22.958Z,24.67
2019-04-16T02:01:53.946Z,24.27
2019-04-16T02:04:24.350Z,29.00
2019-04-16T02:06:57.186Z,27.40
2019-04-16T02:09:28.606Z,25.37
2019-04-16T02:11:59.053Z,24.83
2019-04-16T02:14:29.407Z,26.63
2019-04-16T02:16:59.843Z,24.87
2019-04-16T02:19:32.528Z,28.17
2019-04-16T02:22:02.170Z,23.77
2019-04-16T02:24:32.813Z,26.30
2019-04-16T02:27:03.241Z,27.50
2019-04-16T02:29:33.781Z,28.03
2019-04-16T02:32:04.138Z,28.87
2019-04-16T02:34:34.501Z,26.93
2019-04-16T02:37:04.978Z,25.70
2019-04-16T02:39:47.856Z,26.17
2019-04-16T02:42:09.314Z,28.87
2019-04-16T02:44:41.052Z,26.60
2019-04-16T02:47:11.435Z,28.10
2019-04-16T02:49:42.989Z,35.33
2019-04-16T02:52:29.371Z,28.07
2019-04-16T02:55:27.858Z,26.60
2019-04-16T02:58:11.760Z,31.23
2019-04-16T03:01:00.041Z,27.27
2019-04-16T03:03:44.191Z,28.70
2019-04-16T03:06:14.882Z,26.83
2019-04-16T03:08:45.610Z,26.03
2019-04-16T03:11:17.996Z,24.87
2019-04-16T03:13:48.836Z,31.90
2019-04-16T03:16:38.030Z,24.60
2019-04-16T03:19:18.866Z,30.37
2019-04-16T03:21:47.550Z,28.67
2019-04-16T03:24:17.911Z,28.67
2019-04-16T03:26:50.489Z,31.10
2019-04-16T03:29:20.787Z,31.33
2019-04-16T03:31:57.689Z,27.20
2019-04-16T03:34:24.819Z,26.80
2019-04-16T03:36:58.664Z,31.47
2019-04-16T03:39:27.852Z,30.43
2019-04-16T03:41:58.206Z,28.33
2019-04-16T03:44:28.954Z,23.43
2019-04-16T03:46:59.534Z,26.83
2019-04-16T03:49:30.999Z,28.00
2019-04-16T03:52:04.866Z,27.30
2019-04-16T03:54:33.969Z,26.23
2019-04-16T03:57:04.857Z,24.33
2019-04-16T03:59:35.561Z,27.20
2019-04-16T04:02:06.474Z,32.07
2019-04-16T04:04:36.871Z,27.73
2019-04-16T04:07:09.029Z,31.47
2019-04-16T04:09:39.557Z,37.73
2019-04-16T04:12:13.314Z,30.33
2019-04-16T04:14:42.819Z,28.47
2019-04-16T04:17:13.822Z,29.77
2019-04-16T04:19:46.142Z,31.40
2019-04-16T04:22:19.751Z,31.77
2019-04-16T04:24:52.613Z,30.60
2019-04-16T04:27:23.168Z,31.07
2019-04-16T04:29:53.632Z,29.63
2019-04-16T04:32:25.881Z,30.00
2019-04-16T04:34:56.235Z,37.73
2019-04-16T04:37:31.011Z,38.67
2019-04-16T04:39:58.639Z,27.80
2019-04-16T04:42:29.559Z,30.37
2019-04-16T04:45:00.216Z,28.37
2019-04-16T04:47:30.595Z,35.53
2019-04-16T04:50:04.469Z,25.40
2019-04-16T04:52:34.819Z,29.90
2019-04-16T04:55:07.208Z,27.33
2019-04-16T04:57:38.316Z,31.43
2019-04-16T05:00:09.546Z,31.00
2019-04-16T05:02:43.673Z,35.73
2019-04-16T05:05:43.180Z,75.47
2019-04-16T05:08:13.513Z,36.13
2019-04-16T05:10:48.205Z,35.87
2019-04-16T05:13:23.904Z,31.53
2019-04-16T05:15:52.158Z,36.30
2019-04-16T05:18:24.018Z,27.77
2019-04-16T05:20:55.427Z,30.73
2019-04-16T05:23:26.215Z,28.87
2019-04-16T05:25:57.079Z,28.90
2019-04-16T05:28:27.501Z,34.93
2019-04-16T05:30:58.210Z,29.03
2019-04-16T05:33:29.245Z,31.53
2019-04-16T05:35:59.982Z,27.63
2019-04-16T05:38:31.143Z,25.67
2019-04-16T05:41:13.029Z,37.80
2019-04-16T05:43:35.767Z,33.07
2019-04-16T05:46:08.851Z,34.13
2019-04-16T05:48:39.251Z,40.90
2019-04-16T05:51:11.179Z,32.43
2019-04-16T05:53:45.790Z,30.40
2019-04-16T05:56:25.678Z,28.27
2019-04-16T05:58:56.362Z,30.83
2019-04-16T06:01:34.664Z,29.43
2019-04-16T06:04:05.033Z,31.67
2019-04-16T06:06:35.842Z,33.63
2019-04-16T06:09:11.868Z,27.67
2019-04-16T06:11:41.194Z,29.23
2019-04-16T06:14:20.253Z,29.17
2019-04-16T06:17:31.806Z,26.80
2019-04-16T06:20:25.395Z,30.00
2019-04-16T06:23:13.723Z,29.33
2019-04-16T06:25:54.280Z,30.70
2019-04-16T06:28:42.299Z,24.33
2019-04-16T06:31:47.951Z,29.73
2019-04-16T06:34:27.027Z,28.47
2019-04-16T06:37:07.353Z,27.53
2019-04-16T06:40:01.741Z,27.93
2019-04-16T06:42:42.650Z,25.90
2019-04-16T06:45:47.588Z,24.77
2019-04-16T06:48:27.710Z,26.30
2019-04-16T06:51:11.749Z,25.17
2019-04-16T06:53:58.166Z,25.03
2019-04-16T06:56:41.247Z,24.70
2019-04-16T06:59:30.824Z,26.63
2019-04-16T07:02:23.962Z,22.17
2019-04-16T07:05:22.220Z,28.57
2019-04-16T07:08:17.902Z,29.43
2019-04-16T07:10:59.125Z,28.50
2019-04-16T07:13:30.105Z,25.50
2019-04-16T07:16:00.499Z,28.37
2019-04-16T07:18:31.448Z,25.40
2019-04-16T07:21:02.195Z,26.13
2019-04-16T07:23:34.173Z,25.83
2019-04-16T07:26:13.540Z,28.20
2019-04-16T07:28:51.501Z,27.17
2019-04-16T07:31:41.845Z,27.57
2019-04-16T07:34:34.423Z,27.17
2019-04-16T07:37:22.500Z,27.00
2019-04-16T07:40:10.235Z,24.70
2019-04-16T07:42:58.906Z,26.87
2019-04-16T07:45:46.921Z,24.63
2019-04-16T07:48:26.329Z,25.80
2019-04-16T07:51:17.092Z,23.27
2019-04-16T07:54:14.908Z,27.67
2019-04-16T07:56:48.517Z,26.77
2019-04-16T07:59:19.862Z,22.97
2019-04-16T08:01:50.542Z,22.07
2019-04-16T08:04:28.732Z,22.67
2019-04-16T08:06:54.491Z,24.60
2019-04-16T08:09:29.869Z,25.60
2019-04-16T08:11:59.326Z,24.80
2019-04-16T08:14:30.220Z,28.77
2019-04-16T08:17:00.637Z,25.90
2019-04-16T08:19:37.281Z,24.77
2019-04-16T08:22:03.774Z,24.77
2019-04-16T08:24:37.655Z,21.55
2019-04-16T08:27:09.870Z,27.17
2019-04-16T08:29:42.306Z,23.00
2019-04-16T08:32:16.113Z,22.13
2019-04-16T08:34:48.348Z,25.30
2019-04-16T08:37:20.040Z,23.42
2019-04-16T08:39:50.827Z,25.70
2019-04-16T08:42:25.661Z,22.70
2019-04-16T08:44:55.813Z,21.70
2019-04-16T08:47:26.184Z,25.10
2019-04-16T08:50:00.223Z,22.20
2019-04-16T08:52:33.904Z,24.03
2019-04-16T08:55:04.624Z,22.83
2019-04-16T08:57:37.166Z,28.80
2019-04-16T09:00:14.390Z,25.23
2019-04-16T09:02:46.052Z,28.63
2019-04-16T09:05:16.914Z,27.50
2019-04-16T09:07:50.627Z,28.60
2019-04-16T09:10:23.842Z,27.17
2019-04-16T09:13:03.305Z,24.97
2019-04-16T09:15:31.155Z,23.90
2019-04-16T09:18:21.348Z,25.67
2019-04-16T09:20:51.727Z,26.80
2019-04-16T09:23:22.937Z,21.67
2019-04-16T09:26:14.149Z,25.43
2019-04-16T09:29:07.960Z,23.97
2019-04-16T09:31:57.682Z,22.45
2019-04-16T09:34:46.971Z,24.72
2019-04-16T09:37:41.165Z,23.90
2019-04-16T09:40:21.815Z,23.27
2019-04-16T09:42:52.409Z,25.93
2019-04-16T09:45:24.944Z,22.17
2019-04-16T09:47:55.307Z,25.13
2019-04-16T09:50:25.982Z,27.10
2019-04-16T09:52:56.480Z,23.80
2019-04-16T09:55:26.894Z,24.87
2019-04-16T09:57:59.513Z,24.33
2019-04-16T10:00:33.312Z,23.83
2019-04-16T10:03:17.387Z,24.57
2019-04-16T10:05:49.424Z,21.93
2019-04-16T10:08:20.286Z,21.97
2019-04-16T10:10:51.015Z,25.23
2019-04-16T10:13:30.670Z,25.37
2019-04-16T10:15:55.631Z,35.30
2019-04-16T10:18:27.929Z,26.17
2019-04-16T10:20:58.628Z,26.13
2019-04-16T10:23:34.833Z,31.97
2019-04-16T10:26:06.442Z,24.40
2019-04-16T10:28:39.306Z,23.00
2019-04-16T10:31:13.514Z,24.60
2019-04-16T10:33:44.916Z,23.63
2019-04-16T10:36:15.368Z,28.77
2019-04-16T10:38:54.954Z,22.93
2019-04-16T10:41:35.439Z,23.73
2019-04-16T10:44:28.317Z,23.30
2019-04-16T10:47:16.701Z,26.17
2019-04-16T10:50:09.522Z,25.13
2019-04-16T10:53:08.291Z,27.20
2019-04-16T10:55:56.757Z,28.73
2019-04-16T10:58:52.416Z,25.33
2019-04-16T11:01:36.534Z,24.90
2019-04-16T11:04:21.051Z,27.20
2019-04-16T11:06:52.395Z,24.97
2019-04-16T11:09:22.792Z,25.77
2019-04-16T11:11:55.092Z,27.90
2019-04-16T11:14:25.897Z,26.43
2019-04-16T11:16:56.831Z,23.60
2019-04-16T11:19:30.370Z,30.43
2019-04-16T11:22:04.029Z,25.10
2019-04-16T11:24:34.050Z,25.83
2019-04-16T11:27:04.413Z,20.87
2019-04-16T11:29:34.800Z,22.83
2019-04-16T11:32:05.820Z,24.00
2019-04-16T11:34:36.716Z,23.20
2019-04-16T11:37:09.348Z,17.55
2019-04-16T11:39:39.987Z,19.50
2019-04-16T11:42:11.227Z,22.62
2019-04-16T11:44:43.448Z,21.33
2019-04-16T11:47:14.237Z,26.68
2019-04-16T11:49:45.284Z,27.55
2019-04-16T11:52:16.138Z,21.52
2019-04-16T11:54:47.756Z,20.48
2019-04-16T11:57:21.265Z,23.47
2019-04-16T12:00:05.757Z,26.30
2019-04-16T12:02:42.584Z,24.55
2019-04-16T12:05:22.494Z,24.35
2019-04-16T12:08:04.410Z,23.32
2019-04-16T12:10:53.243Z,21.52
2019-04-16T12:13:38.960Z,24.18
2019-04-16T12:16:34.415Z,21.97
2019-04-16T12:19:27.182Z,23.60
2019-04-16T12:22:04.020Z,22.50
2019-04-16T12:24:56.723Z,20.50
2019-04-16T12:27:44.839Z,20.73
2019-04-16T12:30:34.636Z,24.03
2019-04-16T12:33:30.342Z,22.77
2019-04-16T12:36:13.249Z,19.07
2019-04-16T12:38:56.036Z,22.13
2019-04-16T12:42:00.030Z,24.07
2019-04-16T12:44:46.005Z,21.90
2019-04-16T12:47:35.340Z,19.07
2019-04-16T12:50:25.169Z,22.50
2019-04-16T12:53:16.792Z,20.37
2019-04-16T12:56:09.085Z,18.77
2019-04-16T12:58:56.057Z,17.83
2019-04-16T13:01:48.403Z,15.27
2019-04-16T13:04:38.044Z,17.43
2019-04-16T13:07:33.421Z,18.17
2019-04-16T13:10:24.857Z,17.70
2019-04-16T13:13:18.407Z,14.57
2019-04-16T13:15:59.974Z,13.77
2019-04-16T13:18:52.177Z,14.87
2019-04-16T13:21:41.845Z,12.33
2019-04-16T13:24:33.921Z,13.07
2019-04-16T13:27:24.888Z,14.37
2019-04-16T13:29:55.594Z,14.10
2019-04-16T13:32:27.893Z,18.43
2019-04-16T13:34:58.444Z,11.47
2019-04-16T13:37:33.718Z,13.90
2019-04-16T13:40:13.050Z,11.67
2019-04-16T13:42:44.914Z,11.60
2019-04-16T13:45:27.120Z,12.07
2019-04-16T13:47:57.238Z,12.30
2019-04-16T13:50:54.021Z,14.47
2019-04-16T13:53:49.991Z,13.13
2019-04-16T13:56:39.298Z,11.83
2019-04-16T13:59:33.499Z,13.60
2019-04-16T14:02:18.840Z,15.27
2019-04-16T14:04:49.558Z,13.10
2019-04-16T14:07:21.387Z,12.80
2019-04-16T14:09:52.492Z,11.67
2019-04-16T14:12:41.166Z,13.20
2019-04-16T14:14:56.966Z,13.77
2019-04-16T14:17:29.552Z,13.00
2019-04-16T14:20:00.549Z,12.67
2019-04-16T14:22:32.309Z,11.67
2019-04-16T14:25:05.737Z,13.93
2019-04-16T14:27:36.194Z,14.03
2019-04-16T14:30:13.275Z,14.13
2019-04-16T14:32:43.935Z,13.07
2019-04-16T14:35:32.309Z,14.43
2019-04-16T14:37:51.913Z,12.43
2019-04-16T14:40:23.447Z,14.50
2019-04-16T14:42:57.478Z,14.83
2019-04-16T14:45:56.815Z,16.60
2019-04-16T14:48:14.322Z,13.10
2019-04-16T14:50:44.718Z,17.43
2019-04-16T14:53:33.005Z,17.60
2019-04-16T14:56:09.206Z,14.10
2019-04-16T14:58:50.678Z,17.57
2019-04-16T15:01:52.424Z,16.43
2019-04-16T15:04:35.524Z,13.63
2019-04-16T15:07:11.772Z,15.50
2019-04-16T15:09:51.666Z,15.83
2019-04-16T15:12:26.186Z,17.50
2019-04-16T15:15:02.991Z,16.57
2019-04-16T15:17:53.418Z,16.53
2019-04-16T15:20:52.077Z,17.40
2019-04-16T15:23:34.579Z,15.47
2019-04-16T15:26:42.001Z,15.83
2019-04-16T15:29:17.491Z,15.40
2019-04-16T15:32:04.055Z,17.30
2019-04-16T15:34:41.863Z,16.53
2019-04-16T15:37:30.170Z,14.57
2019-04-16T15:40:09.058Z,20.13
2019-04-16T15:43:02.429Z,17.90
2019-04-16T15:45:40.123Z,16.80
2019-04-16T15:48:38.595Z,17.30
2019-04-16T15:51:25.965Z,16.13
2019-04-16T15:54:08.837Z,16.73
2019-04-16T15:56:52.783Z,16.30
2019-04-16T15:59:45.541Z,13.80
2019-04-16T16:02:50.036Z,15.50
2019-04-16T16:05:29.062Z,15.70
2019-04-16T16:08:12.737Z,12.27
2019-04-16T16:10:48.704Z,18.63
2019-04-16T16:13:19.421Z,13.73
2019-04-16T16:15:50.057Z,15.67
2019-04-16T16:18:20.765Z,16.77
2019-04-16T16:20:52.721Z,12.87
2019-04-16T16:23:24.159Z,12.70
2019-04-16T16:25:54.670Z,17.07
2019-04-16T16:28:25.377Z,15.70
2019-04-16T16:30:55.748Z,12.83
2019-04-16T16:33:27.944Z,14.60
2019-04-16T16:36:00.208Z,14.50
2019-04-16T16:38:31.082Z,15.27
2019-04-16T16:41:01.746Z,15.97
2019-04-16T16:43:39.127Z,12.00
2019-04-16T16:46:32.051Z,14.90
2019-04-16T16:49:03.292Z,12.90
2019-04-16T16:51:34.789Z,13.13
2019-04-16T16:54:23.332Z,10.97
2019-04-16T16:57:24.800Z,13.23
2019-04-16T17:00:12.556Z,17.00
2019-04-16T17:02:48.013Z,10.80
2019-04-16T17:05:23.226Z,12.53
2019-04-16T17:07:55.156Z,11.37
2019-04-16T17:10:27.325Z,13.87
2019-04-16T17:12:58.029Z,12.10
2019-04-16T17:15:30.224Z,16.60
2019-04-16T17:18:00.577Z,12.37
2019-04-16T17:20:33.108Z,10.67
2019-04-16T17:23:03.788Z,13.27
2019-04-16T17:25:36.404Z,14.60
2019-04-16T17:28:08.345Z,12.77
2019-04-16T17:30:38.988Z,16.17
2019-04-16T17:33:09.341Z,17.00
2019-04-16T17:35:39.685Z,15.57
2019-04-16T17:38:10.446Z,18.83
2019-04-16T17:41:02.170Z,17.23
2019-04-16T17:44:00.527Z,17.77
2019-04-16T17:46:37.097Z,18.97
2019-04-16T17:49:24.009Z,21.57
2019-04-16T17:52:13.856Z,26.40
2019-04-16T17:55:06.281Z,21.03
2019-04-16T17:58:08.182Z,21.90
2019-04-16T18:00:57.505Z,23.97
2019-04-16T18:03:46.343Z,21.80
2019-04-16T18:06:41.690Z,19.37
2019-04-16T18:09:26.403Z,29.37
2019-04-16T18:12:16.990Z,18.87
2019-04-16T18:15:19.319Z,23.03
2019-04-16T18:18:07.605Z,23.20
2019-04-16T18:20:56.744Z,19.60
2019-04-16T18:23:42.890Z,18.27
2019-04-16T18:26:30.870Z,16.00
2019-04-16T18:29:04.313Z,17.47
2019-04-16T18:32:09.454Z,19.60
2019-04-16T18:34:53.376Z,25.53
2019-04-16T18:37:41.521Z,15.27
2019-04-16T18:40:25.609Z,16.57
2019-04-16T18:43:34.869Z,20.37
2019-04-16T18:46:17.361Z,13.23
2019-04-16T18:48:49.184Z,13.97
2019-04-16T18:51:23.763Z,14.47
2019-04-16T18:53:52.037Z,16.40
2019-04-16T18:56:22.527Z,15.20
2019-04-16T18:58:53.594Z,14.03
2019-04-16T19:01:29.551Z,14.83
2019-04-16T19:03:58.881Z,27.07
2019-04-16T19:06:30.880Z,23.13
2019-04-16T19:09:03.162Z,13.60
2019-04-16T19:11:35.105Z,12.93
2019-04-16T19:14:05.506Z,12.00
2019-04-16T19:16:36.988Z,14.07
2019-04-16T19:19:07.353Z,15.83
2019-04-16T19:21:37.754Z,17.20
2019-04-16T19:24:08.127Z,12.80
2019-04-16T19:26:39.859Z,12.63
2019-04-16T19:29:14.407Z,15.70
2019-04-16T19:31:42.928Z,13.67
2019-04-16T19:34:13.956Z,14.17
2019-04-16T19:36:44.329Z,13.73
2019-04-16T19:39:15.512Z,13.37
2019-04-16T19:41:46.177Z,12.80
2019-04-16T19:44:17.254Z,13.53
2019-04-16T19:46:52.636Z,13.97
2019-04-16T19:49:20.461Z,12.23
2019-04-16T19:51:50.830Z,11.57
2019-04-16T19:54:21.887Z,13.93
2019-04-16T19:56:52.825Z,12.37
2019-04-16T19:59:23.814Z,14.67
2019-04-16T20:01:55.798Z,12.07
2019-04-16T20:04:26.273Z,12.67
2019-04-16T20:07:01.171Z,14.47
2019-04-16T20:09:33.014Z,15.47
2019-04-16T20:12:04.581Z,15.00
2019-04-16T20:14:36.714Z,14.23
2019-04-16T20:17:07.067Z,16.93
2019-04-16T20:19:58.169Z,17.30
2019-04-16T20:22:30.113Z,17.40
2019-04-16T20:25:03.330Z,16.40
2019-04-16T20:27:36.287Z,17.23
2019-04-16T20:30:06.383Z,14.03
2019-04-16T20:32:37.063Z,13.90
2019-04-16T20:35:07.422Z,17.17
2019-04-16T20:37:38.053Z,21.43
2019-04-16T20:40:08.697Z,17.03
2019-04-16T20:42:40.932Z,17.30
2019-04-16T20:45:12.299Z,19.30
2019-04-16T20:47:43.309Z,15.87
2019-04-16T20:50:13.761Z,17.67
2019-04-16T20:52:44.469Z,21.47
2019-04-16T20:55:16.148Z,17.97
2019-04-16T20:57:49.318Z,18.00
2019-04-16T21:00:26.913Z,23.53
2019-04-16T21:02:57.658Z,23.73
2019-04-16T21:05:28.792Z,19.43
2019-04-16T21:07:59.233Z,27.87
2019-04-16T21:10:35.278Z,22.57
2019-04-16T21:13:04.700Z,18.60
2019-04-16T21:15:35.428Z,25.10
2019-04-16T21:18:10.461Z,22.37
2019-04-16T21:20:39.573Z,19.40
2019-04-16T21:23:11.608Z,18.33
2019-04-16T21:25:42.856Z,20.30
2019-04-16T21:28:28.742Z,20.47
2019-04-16T21:31:04.667Z,21.90
2019-04-16T21:33:52.285Z,23.47
2019-04-16T21:36:37.174Z,16.43
2019-04-16T21:39:16.993Z,15.83
2019-04-16T21:41:44.001Z,17.10
2019-04-16T21:44:14.369Z,20.63
2019-04-16T21:46:46.509Z,15.07
2019-04-16T21:49:17.341Z,18.23
2019-04-16T21:52:06.095Z,17.13
2019-04-16T21:54:39.062Z,19.90
2019-04-16T21:57:13.359Z,18.40
2019-04-16T21:59:42.358Z,16.50
2019-04-16T22:02:38.983Z,16.30
2019-04-16T22:05:11.062Z,16.77
2019-04-16T22:07:42.041Z,21.00
2019-04-16T22:10:14.204Z,16.27
2019-04-16T22:12:44.702Z,17.23
2019-04-16T22:15:16.582Z,16.77
2019-04-16T22:17:47.969Z,19.97
2019-04-16T22:20:18.333Z,16.73
2019-04-16T22:22:49.320Z,15.40
2019-04-16T22:25:20.049Z,16.57
2019-04-16T22:27:50.402Z,15.53
2019-04-16T22:30:20.773Z,18.00
2019-04-16T22:32:54.338Z,17.53
2019-04-16T22:35:24.933Z,17.43
2019-04-16T22:37:56.489Z,19.50
2019-04-16T22:40:39.871Z,19.63
2019-04-16T22:43:44.247Z,18.13
2019-04-16T22:46:38.076Z,17.43
2019-04-16T22:49:08.733Z,16.90
2019-04-16T22:51:43.125Z,22.73
2019-04-16T22:54:12.637Z,18.83
2019-04-16T22:56:48.777Z,18.47
2019-04-16T22:59:19.139Z,17.77
2019-04-16T23:01:53.009Z,16.20
2019-04-16T23:04:26.046Z,16.97
2019-04-16T23:06:55.176Z,17.30
2019-04-16T23:09:28.386Z,18.73
2019-04-16T23:11:58.776Z,17.50
2019-04-16T23:14:34.236Z,18.30
2019-04-16T23:17:01.793Z,17.63
2019-04-16T23:19:32.209Z,20.60
2019-04-16T23:22:03.258Z,14.93
2019-04-16T23:24:33.656Z,18.37
2019-04-16T23:27:05.777Z,15.43
2019-04-16T23:29:38.021Z,16.93
2019-04-16T23:32:10.193Z,16.17
2019-04-16T23:34:41.183Z,15.03
2019-04-16T23:37:11.865Z,19.03
2019-04-16T23:39:45.024Z,19.80
2019-04-16T23:42:19.069Z,16.23
2019-04-16T23:45:00.364Z,17.03
2019-04-16T23:47:47.273Z,20.50
2019-04-16T23:50:49.152Z,18.67
2019-04-16T23:53:39.109Z,17.03
2019-04-16T23:56:24.342Z,21.20
2019-04-16T23:59:16.852Z,17.07
